sensor_id;sensor_type;location;lat;lon;timestamp;P1;durP1;ratioP1;P2;durP2;ratioP2
75614;SDS011;64199;48.578;-4.520;2023-10-08T00:01:02;44.33;;;17.52;;
75614;SDS011;64199;48.578;-4.520;2023-10-08T00:03:29;45.70;;;18.52;;
75614;SDS011;64199;48.578;-4.520;2023-10-08T00:05:55;54.65;;;19.92;;
75614;SDS011;64199;48.578;-4.520;2023-10-08T00:08:21;46.75;;;18.58;;
75614;SDS011;64199;48.578;-4.520;2023-10-08T00:10:48;42.70;;;16.83;;
75614;SDS011;64199;48.578;-4.520;2023-10-08T00:13:14;53.42;;;17.83;;
75614;SDS011;64199;48.578;-4.520;2023-10-08T00:15:43;44.70;;;17.38;;
75614;SDS011;64199;48.578;-4.520;2023-10-08T00:18:20;43.00;;;16.75;;
75614;SDS011;64199;48.578;-4.520;2023-10-08T00:20:48;40.50;;;17.45;;
75614;SDS011;64199;48.578;-4.520;2023-10-08T00:23:23;42.63;;;17.38;;
75614;SDS011;64199;48.578;-4.520;2023-10-08T00:25:53;43.53;;;17.02;;
75614;SDS011;64199;48.578;-4.520;2023-10-08T00:28:19;43.90;;;16.77;;
75614;SDS011;64199;48.578;-4.520;2023-10-08T00:30:46;37.17;;;15.13;;
75614;SDS011;64199;48.578;-4.520;2023-10-08T00:33:13;38.88;;;17.15;;
75614;SDS011;64199;48.578;-4.520;2023-10-08T00:35:40;38.70;;;15.90;;
75614;SDS011;64199;48.578;-4.520;2023-10-08T00:38:07;39.58;;;16.00;;
75614;SDS011;64199;48.578;-4.520;2023-10-08T00:40:46;36.47;;;15.82;;
75614;SDS011;64199;48.578;-4.520;2023-10-08T00:46:00;33.08;;;15.35;;
75614;SDS011;64199;48.578;-4.520;2023-10-08T00:48:50;33.47;;;14.50;;
75614;SDS011;64199;48.578;-4.520;2023-10-08T00:51:26;36.63;;;14.50;;
75614;SDS011;64199;48.578;-4.520;2023-10-08T00:54:06;38.20;;;13.50;;
75614;SDS011;64199;48.578;-4.520;2023-10-08T01:01:49;31.85;;;12.73;;
75614;SDS011;64199;48.578;-4.520;2023-10-08T01:04:31;30.88;;;13.65;;
75614;SDS011;64199;48.578;-4.520;2023-10-08T01:07:03;27.52;;;13.20;;
75614;SDS011;64199;48.578;-4.520;2023-10-08T01:09:41;31.73;;;13.48;;
75614;SDS011;64199;48.578;-4.520;2023-10-08T01:14:46;29.48;;;12.88;;
75614;SDS011;64199;48.578;-4.520;2023-10-08T01:17:14;28.75;;;12.82;;
75614;SDS011;64199;48.578;-4.520;2023-10-08T01:19:44;28.00;;;12.15;;
75614;SDS011;64199;48.578;-4.520;2023-10-08T01:22:18;29.97;;;13.27;;
75614;SDS011;64199;48.578;-4.520;2023-10-08T01:24:47;29.13;;;12.50;;
75614;SDS011;64199;48.578;-4.520;2023-10-08T01:27:19;29.20;;;12.57;;
75614;SDS011;64199;48.578;-4.520;2023-10-08T01:29:52;24.45;;;11.25;;
75614;SDS011;64199;48.578;-4.520;2023-10-08T01:32:19;25.45;;;10.80;;
75614;SDS011;64199;48.578;-4.520;2023-10-08T01:34:46;24.15;;;10.88;;
75614;SDS011;64199;48.578;-4.520;2023-10-08T01:37:14;25.40;;;11.63;;
75614;SDS011;64199;48.578;-4.520;2023-10-08T01:39:43;23.70;;;10.65;;
75614;SDS011;64199;48.578;-4.520;2023-10-08T01:42:15;24.20;;;10.50;;
75614;SDS011;64199;48.578;-4.520;2023-10-08T01:44:49;22.70;;;10.68;;
75614;SDS011;64199;48.578;-4.520;2023-10-08T01:47:20;21.45;;;10.68;;
75614;SDS011;64199;48.578;-4.520;2023-10-08T01:49:50;26.02;;;11.25;;
75614;SDS011;64199;48.578;-4.520;2023-10-08T01:52:23;24.20;;;10.75;;
75614;SDS011;64199;48.578;-4.520;2023-10-08T01:54:49;21.25;;;9.88;;
75614;SDS011;64199;48.578;-4.520;2023-10-08T01:57:19;22.63;;;10.73;;
75614;SDS011;64199;48.578;-4.520;2023-10-08T01:59:44;21.05;;;10.63;;
75614;SDS011;64199;48.578;-4.520;2023-10-08T02:02:10;20.77;;;10.07;;
75614;SDS011;64199;48.578;-4.520;2023-10-08T02:04:37;23.25;;;10.30;;
75614;SDS011;64199;48.578;-4.520;2023-10-08T02:07:05;26.38;;;10.73;;
75614;SDS011;64199;48.578;-4.520;2023-10-08T02:09:38;22.33;;;11.07;;
75614;SDS011;64199;48.578;-4.520;2023-10-08T02:12:07;24.75;;;9.93;;
75614;SDS011;64199;48.578;-4.520;2023-10-08T02:14:33;23.52;;;9.05;;
75614;SDS011;64199;48.578;-4.520;2023-10-08T02:17:01;19.90;;;9.40;;
75614;SDS011;64199;48.578;-4.520;2023-10-08T02:19:31;16.23;;;8.73;;
75614;SDS011;64199;48.578;-4.520;2023-10-08T02:21:59;20.23;;;10.02;;
75614;SDS011;64199;48.578;-4.520;2023-10-08T02:24:25;17.77;;;9.15;;
75614;SDS011;64199;48.578;-4.520;2023-10-08T02:26:51;18.63;;;9.05;;
75614;SDS011;64199;48.578;-4.520;2023-10-08T02:29:18;19.38;;;8.88;;
75614;SDS011;64199;48.578;-4.520;2023-10-08T02:31:44;18.67;;;9.02;;
75614;SDS011;64199;48.578;-4.520;2023-10-08T02:34:10;18.00;;;9.05;;
75614;SDS011;64199;48.578;-4.520;2023-10-08T02:36:37;19.67;;;9.55;;
75614;SDS011;64199;48.578;-4.520;2023-10-08T02:39:06;17.55;;;9.07;;
75614;SDS011;64199;48.578;-4.520;2023-10-08T02:41:46;19.65;;;8.90;;
75614;SDS011;64199;48.578;-4.520;2023-10-08T02:44:13;16.63;;;8.50;;
75614;SDS011;64199;48.578;-4.520;2023-10-08T02:46:43;12.85;;;7.55;;
75614;SDS011;64199;48.578;-4.520;2023-10-08T02:49:12;18.27;;;8.45;;
75614;SDS011;64199;48.578;-4.520;2023-10-08T02:51:42;15.35;;;7.35;;
75614;SDS011;64199;48.578;-4.520;2023-10-08T02:54:13;15.63;;;7.93;;
75614;SDS011;64199;48.578;-4.520;2023-10-08T02:56:46;15.35;;;7.97;;
75614;SDS011;64199;48.578;-4.520;2023-10-08T02:59:16;15.65;;;7.65;;
75614;SDS011;64199;48.578;-4.520;2023-10-08T03:01:46;15.07;;;6.90;;
75614;SDS011;64199;48.578;-4.520;2023-10-08T03:04:15;12.93;;;7.10;;
75614;SDS011;64199;48.578;-4.520;2023-10-08T03:06:47;14.13;;;7.00;;
75614;SDS011;64199;48.578;-4.520;2023-10-08T03:09:22;16.60;;;7.70;;
75614;SDS011;64199;48.578;-4.520;2023-10-08T03:11:50;12.57;;;7.03;;
75614;SDS011;64199;48.578;-4.520;2023-10-08T03:14:18;10.87;;;6.67;;
75614;SDS011;64199;48.578;-4.520;2023-10-08T03:16:50;15.30;;;7.32;;
75614;SDS011;64199;48.578;-4.520;2023-10-08T03:19:19;13.32;;;6.50;;
75614;SDS011;64199;48.578;-4.520;2023-10-08T03:21:47;14.25;;;6.93;;
75614;SDS011;64199;48.578;-4.520;2023-10-08T03:24:19;11.43;;;6.43;;
75614;SDS011;64199;48.578;-4.520;2023-10-08T03:27:00;12.55;;;6.93;;
75614;SDS011;64199;48.578;-4.520;2023-10-08T03:29:45;12.60;;;6.53;;
75614;SDS011;64199;48.578;-4.520;2023-10-08T03:32:12;12.68;;;6.82;;
75614;SDS011;64199;48.578;-4.520;2023-10-08T03:34:45;13.18;;;6.55;;
75614;SDS011;64199;48.578;-4.520;2023-10-08T03:37:16;12.80;;;6.45;;
75614;SDS011;64199;48.578;-4.520;2023-10-08T03:39:47;11.40;;;6.25;;
75614;SDS011;64199;48.578;-4.520;2023-10-08T03:42:25;12.00;;;6.32;;
75614;SDS011;64199;48.578;-4.520;2023-10-08T03:44:51;12.65;;;6.63;;
75614;SDS011;64199;48.578;-4.520;2023-10-08T03:47:19;9.90;;;6.00;;
75614;SDS011;64199;48.578;-4.520;2023-10-08T03:49:51;10.15;;;5.70;;
75614;SDS011;64199;48.578;-4.520;2023-10-08T03:52:19;10.95;;;6.07;;
75614;SDS011;64199;48.578;-4.520;2023-10-08T03:54:51;9.75;;;5.95;;
75614;SDS011;64199;48.578;-4.520;2023-10-08T03:57:36;10.68;;;6.20;;
75614;SDS011;64199;48.578;-4.520;2023-10-08T04:00:09;12.73;;;5.82;;
75614;SDS011;64199;48.578;-4.520;2023-10-08T04:02:44;11.50;;;6.13;;
75614;SDS011;64199;48.578;-4.520;2023-10-08T04:05:34;13.25;;;6.22;;
75614;SDS011;64199;48.578;-4.520;2023-10-08T04:08:29;10.80;;;5.70;;
75614;SDS011;64199;48.578;-4.520;2023-10-08T04:11:15;11.07;;;6.43;;
75614;SDS011;64199;48.578;-4.520;2023-10-08T04:14:04;11.88;;;5.80;;
75614;SDS011;64199;48.578;-4.520;2023-10-08T04:16:33;10.60;;;5.35;;
75614;SDS011;64199;48.578;-4.520;2023-10-08T04:19:02;9.07;;;5.57;;
75614;SDS011;64199;48.578;-4.520;2023-10-08T04:21:29;14.13;;;5.57;;
75614;SDS011;64199;48.578;-4.520;2023-10-08T04:23:55;12.85;;;5.68;;
75614;SDS011;64199;48.578;-4.520;2023-10-08T04:26:23;11.27;;;5.40;;
75614;SDS011;64199;48.578;-4.520;2023-10-08T04:28:55;8.57;;;5.40;;
75614;SDS011;64199;48.578;-4.520;2023-10-08T04:31:31;12.02;;;5.22;;
75614;SDS011;64199;48.578;-4.520;2023-10-08T04:34:06;12.80;;;5.55;;
75614;SDS011;64199;48.578;-4.520;2023-10-08T04:36:42;8.77;;;4.63;;
75614;SDS011;64199;48.578;-4.520;2023-10-08T04:39:10;9.65;;;5.65;;
75614;SDS011;64199;48.578;-4.520;2023-10-08T04:41:46;7.53;;;4.47;;
75614;SDS011;64199;48.578;-4.520;2023-10-08T04:44:18;7.53;;;4.28;;
75614;SDS011;64199;48.578;-4.520;2023-10-08T04:46:44;8.27;;;5.00;;
75614;SDS011;64199;48.578;-4.520;2023-10-08T04:49:10;7.72;;;4.55;;
75614;SDS011;64199;48.578;-4.520;2023-10-08T04:51:48;9.20;;;4.93;;
75614;SDS011;64199;48.578;-4.520;2023-10-08T04:54:14;8.65;;;4.78;;
75614;SDS011;64199;48.578;-4.520;2023-10-08T04:56:43;10.70;;;5.45;;
75614;SDS011;64199;48.578;-4.520;2023-10-08T04:59:10;7.72;;;4.57;;
75614;SDS011;64199;48.578;-4.520;2023-10-08T05:01:37;8.23;;;4.50;;
75614;SDS011;64199;48.578;-4.520;2023-10-08T05:04:06;8.75;;;4.32;;
75614;SDS011;64199;48.578;-4.520;2023-10-08T05:06:46;8.15;;;4.10;;
75614;SDS011;64199;48.578;-4.520;2023-10-08T05:09:12;6.53;;;4.53;;
75614;SDS011;64199;48.578;-4.520;2023-10-08T05:11:38;7.53;;;4.15;;
75614;SDS011;64199;48.578;-4.520;2023-10-08T05:14:22;7.78;;;4.43;;
75614;SDS011;64199;48.578;-4.520;2023-10-08T05:17:02;6.97;;;3.83;;
75614;SDS011;64199;48.578;-4.520;2023-10-08T05:19:34;7.85;;;4.53;;
75614;SDS011;64199;48.578;-4.520;2023-10-08T05:22:13;6.93;;;3.95;;
75614;SDS011;64199;48.578;-4.520;2023-10-08T05:24:47;5.80;;;3.88;;
75614;SDS011;64199;48.578;-4.520;2023-10-08T05:27:32;7.50;;;4.50;;
75614;SDS011;64199;48.578;-4.520;2023-10-08T05:30:03;7.20;;;4.18;;
75614;SDS011;64199;48.578;-4.520;2023-10-08T05:32:44;7.00;;;4.20;;
75614;SDS011;64199;48.578;-4.520;2023-10-08T05:35:31;6.57;;;4.50;;
75614;SDS011;64199;48.578;-4.520;2023-10-08T05:38:13;5.65;;;4.05;;
75614;SDS011;64199;48.578;-4.520;2023-10-08T05:40:50;6.25;;;3.90;;
75614;SDS011;64199;48.578;-4.520;2023-10-08T05:43:28;6.53;;;3.72;;
75614;SDS011;64199;48.578;-4.520;2023-10-08T05:46:09;6.03;;;3.65;;
75614;SDS011;64199;48.578;-4.520;2023-10-08T05:48:51;5.93;;;3.80;;
75614;SDS011;64199;48.578;-4.520;2023-10-08T05:51:36;7.35;;;4.28;;
75614;SDS011;64199;48.578;-4.520;2023-10-08T05:54:19;8.40;;;4.65;;
75614;SDS011;64199;48.578;-4.520;2023-10-08T05:56:54;8.35;;;3.80;;
75614;SDS011;64199;48.578;-4.520;2023-10-08T06:02:23;6.47;;;3.85;;
75614;SDS011;64199;48.578;-4.520;2023-10-08T06:04:54;5.30;;;3.60;;
75614;SDS011;64199;48.578;-4.520;2023-10-08T06:07:55;5.10;;;3.67;;
75614;SDS011;64199;48.578;-4.520;2023-10-08T06:10:37;8.23;;;3.38;;
75614;SDS011;64199;48.578;-4.520;2023-10-08T06:13:10;5.22;;;3.33;;
75614;SDS011;64199;48.578;-4.520;2023-10-08T06:15:57;5.50;;;3.35;;
75614;SDS011;64199;48.578;-4.520;2023-10-08T06:18:29;5.00;;;3.28;;
75614;SDS011;64199;48.578;-4.520;2023-10-08T06:20:59;5.45;;;3.63;;
75614;SDS011;64199;48.578;-4.520;2023-10-08T06:23:38;4.68;;;3.15;;
75614;SDS011;64199;48.578;-4.520;2023-10-08T06:26:08;5.40;;;3.70;;
75614;SDS011;64199;48.578;-4.520;2023-10-08T06:28:37;8.07;;;3.40;;
75614;SDS011;64199;48.578;-4.520;2023-10-08T06:31:09;6.75;;;2.97;;
75614;SDS011;64199;48.578;-4.520;2023-10-08T06:33:37;4.80;;;3.50;;
75614;SDS011;64199;48.578;-4.520;2023-10-08T06:36:06;5.95;;;3.42;;
75614;SDS011;64199;48.578;-4.520;2023-10-08T06:38:39;5.93;;;3.40;;
75614;SDS011;64199;48.578;-4.520;2023-10-08T06:41:11;7.50;;;3.22;;
75614;SDS011;64199;48.578;-4.520;2023-10-08T06:43:45;5.72;;;3.33;;
75614;SDS011;64199;48.578;-4.520;2023-10-08T06:46:31;4.88;;;3.38;;
75614;SDS011;64199;48.578;-4.520;2023-10-08T06:49:08;3.92;;;2.83;;
75614;SDS011;64199;48.578;-4.520;2023-10-08T06:51:39;4.72;;;3.15;;
75614;SDS011;64199;48.578;-4.520;2023-10-08T06:54:09;4.45;;;3.33;;
75614;SDS011;64199;48.578;-4.520;2023-10-08T06:56:38;4.35;;;3.35;;
75614;SDS011;64199;48.578;-4.520;2023-10-08T06:59:11;5.05;;;3.00;;
75614;SDS011;64199;48.578;-4.520;2023-10-08T07:01:38;5.90;;;3.03;;
75614;SDS011;64199;48.578;-4.520;2023-10-08T07:04:07;4.45;;;2.80;;
75614;SDS011;64199;48.578;-4.520;2023-10-08T07:06:40;4.80;;;3.20;;
75614;SDS011;64199;48.578;-4.520;2023-10-08T07:09:08;6.25;;;2.40;;
75614;SDS011;64199;48.578;-4.520;2023-10-08T07:11:50;7.38;;;3.20;;
75614;SDS011;64199;48.578;-4.520;2023-10-08T07:14:28;5.90;;;3.33;;
75614;SDS011;64199;48.578;-4.520;2023-10-08T07:16:58;5.05;;;2.88;;
75614;SDS011;64199;48.578;-4.520;2023-10-08T07:19:26;4.55;;;2.83;;
75614;SDS011;64199;48.578;-4.520;2023-10-08T07:22:03;5.40;;;2.72;;
75614;SDS011;64199;48.578;-4.520;2023-10-08T07:24:43;4.80;;;3.05;;
75614;SDS011;64199;48.578;-4.520;2023-10-08T07:27:15;4.07;;;2.63;;
75614;SDS011;64199;48.578;-4.520;2023-10-08T07:29:46;3.88;;;2.85;;
75614;SDS011;64199;48.578;-4.520;2023-10-08T07:32:13;3.53;;;2.50;;
75614;SDS011;64199;48.578;-4.520;2023-10-08T07:34:43;3.70;;;2.42;;
75614;SDS011;64199;48.578;-4.520;2023-10-08T07:37:09;4.40;;;2.50;;
75614;SDS011;64199;48.578;-4.520;2023-10-08T07:39:36;6.10;;;2.90;;
75614;SDS011;64199;48.578;-4.520;2023-10-08T07:42:11;4.63;;;2.78;;
75614;SDS011;64199;48.578;-4.520;2023-10-08T07:44:38;4.75;;;2.72;;
75614;SDS011;64199;48.578;-4.520;2023-10-08T07:47:05;4.30;;;2.70;;
75614;SDS011;64199;48.578;-4.520;2023-10-08T07:49:39;5.43;;;2.40;;
75614;SDS011;64199;48.578;-4.520;2023-10-08T07:52:05;3.97;;;2.33;;
75614;SDS011;64199;48.578;-4.520;2023-10-08T07:54:31;4.60;;;2.72;;
75614;SDS011;64199;48.578;-4.520;2023-10-08T07:57:00;3.33;;;2.03;;
75614;SDS011;64199;48.578;-4.520;2023-10-08T07:59:44;3.72;;;2.55;;
75614;SDS011;64199;48.578;-4.520;2023-10-08T08:02:20;4.72;;;2.78;;
75614;SDS011;64199;48.578;-4.520;2023-10-08T08:04:51;3.30;;;2.35;;
75614;SDS011;64199;48.578;-4.520;2023-10-08T08:07:18;4.78;;;2.45;;
75614;SDS011;64199;48.578;-4.520;2023-10-08T08:09:45;3.40;;;2.47;;
75614;SDS011;64199;48.578;-4.520;2023-10-08T08:12:22;3.60;;;2.50;;
75614;SDS011;64199;48.578;-4.520;2023-10-08T08:14:50;3.85;;;2.20;;
75614;SDS011;64199;48.578;-4.520;2023-10-08T08:17:19;3.95;;;2.50;;
75614;SDS011;64199;48.578;-4.520;2023-10-08T08:19:48;4.95;;;2.40;;
75614;SDS011;64199;48.578;-4.520;2023-10-08T08:22:19;3.53;;;2.20;;
75614;SDS011;64199;48.578;-4.520;2023-10-08T08:24:49;3.88;;;2.75;;
75614;SDS011;64199;48.578;-4.520;2023-10-08T08:27:20;2.35;;;2.03;;
75614;SDS011;64199;48.578;-4.520;2023-10-08T08:29:56;2.58;;;2.30;;
75614;SDS011;64199;48.578;-4.520;2023-10-08T08:32:35;3.13;;;2.10;;
75614;SDS011;64199;48.578;-4.520;2023-10-08T08:35:05;5.55;;;2.25;;
75614;SDS011;64199;48.578;-4.520;2023-10-08T08:37:32;3.03;;;2.17;;
75614;SDS011;64199;48.578;-4.520;2023-10-08T08:40:01;3.65;;;2.47;;
75614;SDS011;64199;48.578;-4.520;2023-10-08T08:42:33;3.67;;;2.28;;
75614;SDS011;64199;48.578;-4.520;2023-10-08T08:45:05;3.00;;;2.13;;
75614;SDS011;64199;48.578;-4.520;2023-10-08T08:47:37;3.78;;;2.58;;
75614;SDS011;64199;48.578;-4.520;2023-10-08T08:50:06;2.90;;;2.03;;
75614;SDS011;64199;48.578;-4.520;2023-10-08T08:52:36;2.83;;;2.10;;
75614;SDS011;64199;48.578;-4.520;2023-10-08T08:55:08;3.88;;;2.42;;
75614;SDS011;64199;48.578;-4.520;2023-10-08T08:57:39;2.33;;;1.90;;
75614;SDS011;64199;48.578;-4.520;2023-10-08T09:00:12;3.15;;;2.42;;
75614;SDS011;64199;48.578;-4.520;2023-10-08T09:02:40;3.10;;;1.95;;
75614;SDS011;64199;48.578;-4.520;2023-10-08T09:05:06;3.00;;;2.05;;
75614;SDS011;64199;48.578;-4.520;2023-10-08T09:10:24;3.17;;;1.98;;
75614;SDS011;64199;48.578;-4.520;2023-10-08T09:12:54;4.43;;;2.13;;
75614;SDS011;64199;48.578;-4.520;2023-10-08T09:15:27;3.67;;;1.98;;
75614;SDS011;64199;48.578;-4.520;2023-10-08T09:17:53;3.85;;;2.10;;
75614;SDS011;64199;48.578;-4.520;2023-10-08T09:20:25;3.53;;;2.20;;
75614;SDS011;64199;48.578;-4.520;2023-10-08T09:23:06;1.85;;;1.40;;
75614;SDS011;64199;48.578;-4.520;2023-10-08T09:25:32;2.95;;;1.95;;
75614;SDS011;64199;48.578;-4.520;2023-10-08T09:27:59;2.90;;;1.80;;
75614;SDS011;64199;48.578;-4.520;2023-10-08T09:30:25;1.80;;;1.67;;
75614;SDS011;64199;48.578;-4.520;2023-10-08T09:32:54;5.07;;;1.90;;
75614;SDS011;64199;48.578;-4.520;2023-10-08T09:35:20;2.13;;;1.77;;
75614;SDS011;64199;48.578;-4.520;2023-10-08T09:37:49;3.05;;;2.10;;
75614;SDS011;64199;48.578;-4.520;2023-10-08T09:40:16;3.45;;;1.92;;
75614;SDS011;64199;48.578;-4.520;2023-10-08T09:42:46;2.30;;;1.90;;
75614;SDS011;64199;48.578;-4.520;2023-10-08T09:45:13;4.82;;;2.20;;
75614;SDS011;64199;48.578;-4.520;2023-10-08T09:47:47;2.25;;;1.80;;
75614;SDS011;64199;48.578;-4.520;2023-10-08T09:50:20;2.78;;;2.10;;
75614;SDS011;64199;48.578;-4.520;2023-10-08T09:55:33;2.15;;;1.67;;
75614;SDS011;64199;48.578;-4.520;2023-10-08T09:58:00;2.35;;;1.92;;
75614;SDS011;64199;48.578;-4.520;2023-10-08T10:00:26;1.80;;;1.63;;
75614;SDS011;64199;48.578;-4.520;2023-10-08T10:02:58;2.53;;;2.15;;
75614;SDS011;64199;48.578;-4.520;2023-10-08T10:05:34;2.47;;;1.90;;
75614;SDS011;64199;48.578;-4.520;2023-10-08T10:08:03;2.67;;;1.85;;
75614;SDS011;64199;48.578;-4.520;2023-10-08T10:10:35;1.88;;;1.45;;
75614;SDS011;64199;48.578;-4.520;2023-10-08T10:15:32;1.88;;;1.48;;
75614;SDS011;64199;48.578;-4.520;2023-10-08T10:18:15;1.70;;;1.60;;
75614;SDS011;64199;48.578;-4.520;2023-10-08T10:21:39;4.00;;;1.80;;
75614;SDS011;64199;48.578;-4.520;2023-10-08T10:23:44;3.65;;;2.00;;
75614;SDS011;64199;48.578;-4.520;2023-10-08T10:29:33;2.65;;;1.73;;
75614;SDS011;64199;48.578;-4.520;2023-10-08T10:34:18;2.38;;;1.65;;
75614;SDS011;64199;48.578;-4.520;2023-10-08T10:36:46;2.22;;;1.85;;
75614;SDS011;64199;48.578;-4.520;2023-10-08T10:39:20;2.20;;;1.48;;
75614;SDS011;64199;48.578;-4.520;2023-10-08T10:41:53;3.83;;;1.88;;
75614;SDS011;64199;48.578;-4.520;2023-10-08T10:44:29;2.47;;;1.83;;
75614;SDS011;64199;48.578;-4.520;2023-10-08T10:46:57;2.05;;;1.60;;
75614;SDS011;64199;48.578;-4.520;2023-10-08T10:49:47;3.97;;;1.50;;
75614;SDS011;64199;48.578;-4.520;2023-10-08T10:52:32;3.35;;;1.80;;
75614;SDS011;64199;48.578;-4.520;2023-10-08T10:55:19;2.40;;;1.52;;
75614;SDS011;64199;48.578;-4.520;2023-10-08T10:57:56;4.17;;;1.80;;
75614;SDS011;64199;48.578;-4.520;2023-10-08T11:00:36;2.28;;;1.50;;
75614;SDS011;64199;48.578;-4.520;2023-10-08T11:03:07;1.85;;;1.52;;
75614;SDS011;64199;48.578;-4.520;2023-10-08T11:05:41;1.45;;;1.35;;
75614;SDS011;64199;48.578;-4.520;2023-10-08T11:08:13;1.67;;;1.58;;
75614;SDS011;64199;48.578;-4.520;2023-10-08T11:10:42;3.05;;;1.55;;
75614;SDS011;64199;48.578;-4.520;2023-10-08T11:13:14;1.83;;;1.70;;
75614;SDS011;64199;48.578;-4.520;2023-10-08T11:15:44;1.85;;;1.55;;
75614;SDS011;64199;48.578;-4.520;2023-10-08T11:18:21;1.33;;;1.20;;
75614;SDS011;64199;48.578;-4.520;2023-10-08T11:20:50;3.03;;;1.50;;
75614;SDS011;64199;48.578;-4.520;2023-10-08T11:23:36;1.40;;;1.20;;
75614;SDS011;64199;48.578;-4.520;2023-10-08T11:26:06;2.83;;;1.50;;
75614;SDS011;64199;48.578;-4.520;2023-10-08T11:28:33;1.45;;;1.33;;
75614;SDS011;64199;48.578;-4.520;2023-10-08T11:31:11;2.25;;;1.77;;
75614;SDS011;64199;48.578;-4.520;2023-10-08T11:33:42;2.00;;;1.40;;
75614;SDS011;64199;48.578;-4.520;2023-10-08T11:36:19;1.40;;;1.15;;
75614;SDS011;64199;48.578;-4.520;2023-10-08T11:39:11;1.65;;;1.40;;
75614;SDS011;64199;48.578;-4.520;2023-10-08T11:41:59;1.63;;;1.17;;
75614;SDS011;64199;48.578;-4.520;2023-10-08T11:44:41;2.15;;;1.60;;
75614;SDS011;64199;48.578;-4.520;2023-10-08T11:47:08;1.20;;;1.10;;
75614;SDS011;64199;48.578;-4.520;2023-10-08T11:49:46;4.28;;;1.27;;
75614;SDS011;64199;48.578;-4.520;2023-10-08T11:52:13;2.53;;;1.38;;
75614;SDS011;64199;48.578;-4.520;2023-10-08T11:54:46;3.28;;;1.45;;
75614;SDS011;64199;48.578;-4.520;2023-10-08T11:57:14;1.73;;;1.40;;
75614;SDS011;64199;48.578;-4.520;2023-10-08T11:59:45;1.40;;;1.25;;
75614;SDS011;64199;48.578;-4.520;2023-10-08T12:02:12;2.88;;;1.33;;
75614;SDS011;64199;48.578;-4.520;2023-10-08T12:04:41;6.75;;;1.75;;
75614;SDS011;64199;48.578;-4.520;2023-10-08T12:09:36;2.83;;;1.20;;
75614;SDS011;64199;48.578;-4.520;2023-10-08T12:12:05;1.90;;;1.38;;
75614;SDS011;64199;48.578;-4.520;2023-10-08T12:14:35;1.88;;;1.27;;
75614;SDS011;64199;48.578;-4.520;2023-10-08T12:17:03;4.53;;;1.40;;
75614;SDS011;64199;48.578;-4.520;2023-10-08T12:19:36;2.47;;;1.45;;
75614;SDS011;64199;48.578;-4.520;2023-10-08T12:22:05;4.43;;;1.25;;
75614;SDS011;64199;48.578;-4.520;2023-10-08T12:26:59;1.10;;;1.00;;
75614;SDS011;64199;48.578;-4.520;2023-10-08T12:29:28;2.55;;;1.30;;
75614;SDS011;64199;48.578;-4.520;2023-10-08T12:31:56;2.13;;;1.38;;
75614;SDS011;64199;48.578;-4.520;2023-10-08T12:34:27;2.60;;;1.52;;
75614;SDS011;64199;48.578;-4.520;2023-10-08T12:36:54;2.95;;;1.20;;
75614;SDS011;64199;48.578;-4.520;2023-10-08T12:39:20;1.08;;;0.95;;
75614;SDS011;64199;48.578;-4.520;2023-10-08T12:41:50;2.42;;;1.40;;
75614;SDS011;64199;48.578;-4.520;2023-10-08T12:44:18;1.70;;;1.42;;
75614;SDS011;64199;48.578;-4.520;2023-10-08T12:46:44;2.55;;;1.10;;
75614;SDS011;64199;48.578;-4.520;2023-10-08T12:49:17;1.70;;;1.30;;
75614;SDS011;64199;48.578;-4.520;2023-10-08T12:51:46;1.27;;;1.17;;
75614;SDS011;64199;48.578;-4.520;2023-10-08T12:54:12;1.35;;;1.25;;
75614;SDS011;64199;48.578;-4.520;2023-10-08T12:56:46;1.15;;;0.90;;
75614;SDS011;64199;48.578;-4.520;2023-10-08T12:59:20;1.10;;;1.00;;
75614;SDS011;64199;48.578;-4.520;2023-10-08T13:01:47;1.33;;;1.08;;
75614;SDS011;64199;48.578;-4.520;2023-10-08T13:04:26;2.92;;;1.10;;
75614;SDS011;64199;48.578;-4.520;2023-10-08T13:07:00;2.45;;;1.10;;
75614;SDS011;64199;48.578;-4.520;2023-10-08T13:09:29;6.47;;;1.30;;
75614;SDS011;64199;48.578;-4.520;2023-10-08T13:12:02;0.93;;;0.80;;
75614;SDS011;64199;48.578;-4.520;2023-10-08T13:14:41;2.28;;;1.05;;
75614;SDS011;64199;48.578;-4.520;2023-10-08T13:17:10;1.38;;;1.27;;
75614;SDS011;64199;48.578;-4.520;2023-10-08T13:19:37;2.35;;;1.13;;
75614;SDS011;64199;48.578;-4.520;2023-10-08T13:22:03;1.65;;;0.98;;
75614;SDS011;64199;48.578;-4.520;2023-10-08T13:24:32;1.15;;;0.95;;
75614;SDS011;64199;48.578;-4.520;2023-10-08T13:29:31;1.02;;;0.93;;
75614;SDS011;64199;48.578;-4.520;2023-10-08T13:31:58;1.08;;;0.93;;
75614;SDS011;64199;48.578;-4.520;2023-10-08T13:34:23;1.35;;;1.10;;
75614;SDS011;64199;48.578;-4.520;2023-10-08T13:36:51;1.55;;;1.27;;
75614;SDS011;64199;48.578;-4.520;2023-10-08T13:39:17;1.00;;;0.90;;
75614;SDS011;64199;48.578;-4.520;2023-10-08T13:41:43;1.38;;;0.90;;
75614;SDS011;64199;48.578;-4.520;2023-10-08T13:44:14;2.75;;;1.20;;
75614;SDS011;64199;48.578;-4.520;2023-10-08T13:46:40;0.85;;;0.85;;
75614;SDS011;64199;48.578;-4.520;2023-10-08T13:49:14;1.10;;;1.00;;
75614;SDS011;64199;48.578;-4.520;2023-10-08T13:51:41;1.50;;;1.02;;
75614;SDS011;64199;48.578;-4.520;2023-10-08T13:54:09;1.03;;;0.80;;
75614;SDS011;64199;48.578;-4.520;2023-10-08T13:56:36;1.60;;;0.90;;
75614;SDS011;64199;48.578;-4.520;2023-10-08T13:59:03;0.85;;;0.80;;
75614;SDS011;64199;48.578;-4.520;2023-10-08T14:01:39;1.15;;;1.00;;
75614;SDS011;64199;48.578;-4.520;2023-10-08T14:04:08;1.00;;;1.00;;
75614;SDS011;64199;48.578;-4.520;2023-10-08T14:06:38;0.90;;;0.90;;
75614;SDS011;64199;48.578;-4.520;2023-10-08T14:09:13;1.10;;;0.90;;
75614;SDS011;64199;48.578;-4.520;2023-10-08T14:11:46;1.20;;;0.95;;
75614;SDS011;64199;48.578;-4.520;2023-10-08T14:14:12;1.23;;;1.02;;
75614;SDS011;64199;48.578;-4.520;2023-10-08T14:16:41;1.50;;;1.17;;
75614;SDS011;64199;48.578;-4.520;2023-10-08T14:19:08;1.35;;;0.80;;
75614;SDS011;64199;48.578;-4.520;2023-10-08T14:21:43;1.00;;;0.90;;
75614;SDS011;64199;48.578;-4.520;2023-10-08T14:24:30;4.38;;;1.00;;
75614;SDS011;64199;48.578;-4.520;2023-10-08T14:27:03;1.13;;;0.90;;
75614;SDS011;64199;48.578;-4.520;2023-10-08T14:29:36;0.80;;;0.80;;
75614;SDS011;64199;48.578;-4.520;2023-10-08T14:32:05;1.02;;;0.85;;
75614;SDS011;64199;48.578;-4.520;2023-10-08T14:34:34;6.70;;;1.30;;
75614;SDS011;64199;48.578;-4.520;2023-10-08T14:37:22;1.77;;;1.00;;
75614;SDS011;64199;48.578;-4.520;2023-10-08T14:40:08;4.25;;;1.10;;
75614;SDS011;64199;48.578;-4.520;2023-10-08T14:42:53;2.13;;;1.20;;
75614;SDS011;64199;48.578;-4.520;2023-10-08T14:45:22;1.55;;;0.80;;
75614;SDS011;64199;48.578;-4.520;2023-10-08T14:47:54;3.40;;;1.10;;
75614;SDS011;64199;48.578;-4.520;2023-10-08T14:50:21;2.88;;;1.00;;
75614;SDS011;64199;48.578;-4.520;2023-10-08T14:52:48;1.05;;;0.90;;
75614;SDS011;64199;48.578;-4.520;2023-10-08T14:55:14;2.15;;;1.25;;
75614;SDS011;64199;48.578;-4.520;2023-10-08T14:57:41;5.07;;;1.20;;
75614;SDS011;64199;48.578;-4.520;2023-10-08T15:00:07;5.75;;;0.90;;
75614;SDS011;64199;48.578;-4.520;2023-10-08T15:05:03;2.30;;;0.93;;
75614;SDS011;64199;48.578;-4.520;2023-10-08T15:07:32;0.82;;;0.77;;
75614;SDS011;64199;48.578;-4.520;2023-10-08T15:09:59;0.90;;;0.80;;
75614;SDS011;64199;48.578;-4.520;2023-10-08T15:12:28;0.88;;;0.70;;
75614;SDS011;64199;48.578;-4.520;2023-10-08T15:15:00;2.80;;;1.00;;
75614;SDS011;64199;48.578;-4.520;2023-10-08T15:17:37;1.30;;;0.90;;
75614;SDS011;64199;48.578;-4.520;2023-10-08T15:20:14;1.10;;;1.00;;
75614;SDS011;64199;48.578;-4.520;2023-10-08T15:22:45;0.80;;;0.80;;
75614;SDS011;64199;48.578;-4.520;2023-10-08T15:25:14;1.15;;;0.98;;
75614;SDS011;64199;48.578;-4.520;2023-10-08T15:27:44;1.90;;;0.80;;
75614;SDS011;64199;48.578;-4.520;2023-10-08T15:30:13;1.60;;;1.17;;
75614;SDS011;64199;48.578;-4.520;2023-10-08T15:32:46;1.13;;;0.90;;